Nathaniel B. Palmer — WBP3210 — position and weather

sailwx.info

Track history (hours):
 
Tides and Currents Weather Stations Pressure Air Temp Water Temp Dewpoint Dewpoint Depression Visibility Wind Speed Wind Dir Waves Ship Positions

Oceanographic research ship Nathaniel B. Palmer (USA)

Contact: Ethan Norris, ethan.norris.contractor@usap.gov

Detailed information on ship capabilities available from University of Delaware's Ocean Information Center and ARCUS's ALIAS (Arctic Logistics Information and Support) project.

Owner: OFFSHORE SERVICE VESSELS, Cut Off, LA. More information available from US FCC via Universal Licensing System and Coast Guard Vessel Documentation Center.

Last reported at 2019-Oct-18 23:00 UTC. Time now 2019-Oct-18 23:56 UTC.
Position S 53°06' W 070°54'.

Type: Other ship. MMSI: 366610000.

Wind from 360 at 10 knots

Barometer 1003.3 mb
Air temperature 8.6 ° C
Water temperature -0.0 ° C

Date/timePositionNaut miles runAvg speedWind from/ knotsBaromVisibWave heightAir tempDewpointWater temp
2019-Oct-18 23:00S 53°06' W 070°54'0 0.0 360 / 101003.3 8.6 -0.0
2019-Oct-18 22:00S 53°06' W 070°54'0 0.0 360 / 111004.0 9.1 -0.0
2019-Oct-18 21:00S 53°06' W 070°54'0 0.0 1004.3 8.9 -0.0
2019-Oct-18 20:00S 53°06' W 070°54'0 0.0 1005.4 7.9 -0.0
2019-Oct-18 19:00S 53°06' W 070°54'0 0.0 020 / 141006.6 5.8 -0.0
2019-Oct-18 18:00S 53°06' W 070°54'0 0.0 020 / 171007.7 4.9 -0.0
2019-Oct-18 17:00S 53°06' W 070°54'0 0.0 010 / 151008.8 5.0 -0.0
2019-Oct-18 16:00S 53°06' W 070°54'0 0.0 350 / 121009.6 5.8 -0.0
2019-Oct-18 15:00S 53°06' W 070°54'0 0.0 360 / 101009.8 6.9 -0.0
2019-Oct-18 14:00S 53°06' W 070°54'0 0.0 330 / 81010.5 6.8 -0.0
2019-Oct-18 13:00S 53°06' W 070°54'0 0.0 300 / 81011.0 6.8 -0.0
2019-Oct-18 12:00S 53°06' W 070°54'0 0.0 260 / 71011.3 7.1 -0.0
2019-Oct-18 11:00S 53°06' W 070°54'0 0.0 260 / 71011.4 5.9 -0.0
2019-Oct-18 10:00S 53°06' W 070°54'0 0.0 260 / 111011.0 5.0 -0.0
2019-Oct-18 09:00S 53°06' W 070°54'0 0.0 280 / 111010.7 4.9 -0.0
2019-Oct-18 08:00S 53°06' W 070°54'0 0.0 280 / 91010.2 5.0 -0.0
2019-Oct-18 07:00S 53°06' W 070°54'0 0.0 260 / 81009.6 5.0 -0.0
2019-Oct-18 06:00S 53°06' W 070°54'0 0.0 280 / 101008.7 5.1 -0.0
2019-Oct-18 05:00S 53°06' W 070°54'0 0.0 270 / 91008.0 5.5 -0.0
2019-Oct-18 04:00S 53°06' W 070°54'0 0.0 270 / 91007.1 5.8 -0.0
2019-Oct-18 03:00S 53°06' W 070°54'0 0.0 280 / 151005.8 6.8 -0.0
2019-Oct-18 02:00S 53°06' W 070°54'0 0.0 300 / 81005.2 7.4 -0.0
2019-Oct-18 01:00S 53°06' W 070°54'0 0.0 270 / 41004.7 8.1 -0.0
2019-Oct-18 00:00S 53°06' W 070°54'0 0.0 300 / 81003.9 8.6 -0.0
2019-Oct-17 23:00S 53°06' W 070°54'0 0.0 300 / 151003.7 9.0 -0.0
2019-Oct-17 22:00S 53°06' W 070°54'0 0.0 300 / 211004.4 9.4 -0.0
2019-Oct-17 21:00S 53°06' W 070°54'0 0.0 290 / 211004.7 9.7 -0.0
2019-Oct-17 20:00S 53°06' W 070°54'0 0.0 290 / 181004.9 10.4 -0.0
2019-Oct-17 19:00S 53°06' W 070°54'0 0.0 290 / 171005.0 11.3 -0.0
2019-Oct-17 18:00S 53°06' W 070°54'0 0.0 300 / 191005.4 11.4 -0.0
2019-Oct-17 17:00S 53°06' W 070°54'0 0.0 290 / 161005.8 11.3 -0.0
2019-Oct-17 16:00S 53°06' W 070°54'0 0.0 280 / 131006.3 11.2 -0.0
2019-Oct-17 15:00S 53°06' W 070°54'0 0.0 270 / 141006.3 10.3 -0.0
2019-Oct-17 14:00S 53°06' W 070°54'0 0.0 280 / 111006.6 9.5 -0.0
2019-Oct-17 13:00S 53°06' W 070°54'0 0.0 280 / 101006.4 8.8 -0.0
2019-Oct-17 12:00S 53°06' W 070°54'0 0.0 310 / 31006.4 7.1 -0.0
2019-Oct-17 11:00S 53°06' W 070°54'0 0.0 040 / 31006.5 5.9 -0.0
2019-Oct-17 10:00S 53°06' W 070°54'0 0.0 070 / 21006.4 5.9 -0.0
2019-Oct-17 09:00S 53°06' W 070°54'0 0.0 110 / 21006.6 6.2 -0.0
2019-Oct-17 08:00S 53°06' W 070°54'0 0.0 140 / 11007.0 6.3 -0.0
2019-Oct-17 07:00S 53°06' W 070°54'0 0.0 250 / 21007.1 6.1 -0.0
2019-Oct-17 06:00S 53°06' W 070°54'0 0.0 300 / 21007.5 6.4 -0.0
2019-Oct-17 05:00S 53°06' W 070°54'0 0.0 350 / 21008.0 6.4 -0.0
2019-Oct-17 04:00S 53°06' W 070°54'0 0.0 060 / 51008.3 6.4 -0.0
2019-Oct-17 03:00S 53°06' W 070°54'0 0.0 060 / 41008.7 6.6 -0.0
2019-Oct-17 02:00S 53°06' W 070°54'0 0.0 040 / 41009.1 7.3 -0.0
2019-Oct-17 01:00S 53°06' W 070°54'0 0.0 040 / 31009.3 8.4 -0.0
2019-Oct-17 00:00S 53°06' W 070°54'0 0.0 210 / 21009.3 8.5 -0.0
2019-Oct-16 23:00S 53°06' W 070°54'0 0.0 200 / 41009.5 8.6 -0.0
2019-Oct-16 22:00S 53°06' W 070°54'0 0.0 210 / 61009.7 8.1 -0.0
2019-Oct-16 21:00S 53°06' W 070°54'0 0.0 190 / 101009.9 7.6 -0.0
2019-Oct-16 20:00S 53°06' W 070°54'0 0.0 180 / 131010.3 7.5 -0.0
2019-Oct-16 19:00S 53°06' W 070°54'0 0.0 200 / 121011.3 7.9 -0.0
2019-Oct-16 18:00S 53°06' W 070°54'0 0.0 180 / 131012.4 7.9 -0.0
2019-Oct-16 17:00S 53°06' W 070°54'0 0.0 180 / 161013.0 7.5 -0.0
2019-Oct-16 16:00S 53°06' W 070°54'0 0.0 180 / 171013.8 7.4 -0.0
2019-Oct-16 15:00S 53°06' W 070°54'0 0.0 190 / 131014.8 7.7 -0.0
2019-Oct-16 14:00S 53°06' W 070°54'0 0.0 190 / 121015.8 7.1 -0.0
2019-Oct-16 13:00S 53°06' W 070°54'0 0.0 190 / 151016.0 7.0 -0.0
2019-Oct-16 12:00S 53°06' W 070°54'0 0.0 210 / 151016.3 6.3 -0.0
2019-Oct-16 11:00S 53°06' W 070°54'0 0.0 220 / 81016.7 4.2 -0.0
2019-Oct-16 10:00S 53°06' W 070°54'0 0.0 230 / 81017.1 3.2 -0.0
2019-Oct-16 09:00S 53°06' W 070°54'0 0.0 210 / 131017.6 4.2 -0.0
2019-Oct-16 08:00S 53°06' W 070°54'0 0.0 210 / 111018.0 4.2 -0.0
2019-Oct-16 07:00S 53°06' W 070°54'0 0.0 220 / 71018.5 4.9 -0.0
2019-Oct-16 06:00S 53°06' W 070°54'0 0.0 250 / 41019.2 4.8 -0.0
2019-Oct-16 05:00S 53°06' W 070°54'0 0.0 240 / 21019.8 5.2 -0.0
2019-Oct-16 04:00S 53°06' W 070°54'0 0.0 180 / 21020.1 6.7 -0.0
2019-Oct-16 03:00S 53°06' W 070°54'0 0.0 220 / 11020.3 6.9 -0.0
2019-Oct-16 02:00S 53°06' W 070°54'0 0.0 230 / 21020.7 8.0 -0.0
2019-Oct-16 01:00S 53°06' W 070°54'0 0.0 250 / 31020.7 8.3 -0.0
2019-Oct-16 00:00S 53°06' W 070°54'0 0.0 230 / 51020.5 8.6 -0.0
2019-Oct-15 23:00S 53°06' W 070°54'0 0.0 190 / 61020.8 8.5 -0.0
2019-Oct-15 22:00S 53°06' W 070°54'0 0.0 170 / 51021.1 8.2 -0.0
2019-Oct-15 21:00S 53°06' W 070°54'0 0.0 200 / 41021.3 8.3 -0.0
2019-Oct-15 20:00S 53°06' W 070°54'0 0.0 190 / 31021.9 7.9 -0.0
2019-Oct-15 19:00S 53°06' W 070°54'0 0.0 160 / 41022.5 7.1 -0.0
2019-Oct-15 18:00S 53°06' W 070°54'0 0.0 110 / 41023.0 6.3 -0.0
2019-Oct-15 17:00S 53°06' W 070°54'0 0.0 090 / 41023.4 6.3 -0.0
2019-Oct-15 16:00S 53°06' W 070°54'0 0.0 080 / 51024.0 6.4 -0.0
2019-Oct-15 15:00S 53°06' W 070°54'0 0.0 080 / 51024.5 6.1 -0.0
2019-Oct-15 14:00S 53°06' W 070°54'0 0.0 060 / 71024.7 5.9 -0.0
2019-Oct-15 13:00S 53°06' W 070°54'0 0.0 080 / 41025.1 6.2 -0.0
2019-Oct-15 12:00S 53°06' W 070°54'0 0.0 110 / 11025.3 6.7 -0.0
2019-Oct-15 11:00S 53°06' W 070°54'0 0.0 310 / 21025.4 5.3 -0.0
2019-Oct-15 10:00S 53°06' W 070°54'0 0.0 300 / 21025.4 3.3 -0.0
2019-Oct-15 09:00S 53°06' W 070°54'0 0.0 270 / 31025.6 3.4 -0.0
2019-Oct-15 08:00S 53°06' W 070°54'0 0.0 260 / 41025.7 3.8 -0.0
2019-Oct-15 07:00S 53°06' W 070°54'0 0.0 290 / 41025.9 4.5 -0.0
2019-Oct-15 06:00S 53°06' W 070°54'0 0.0 340 / 61026.1 5.0 -0.0
2019-Oct-15 05:00S 53°06' W 070°54'0 0.0 340 / 61026.6 5.5 -0.0
2019-Oct-15 04:00S 53°06' W 070°54'0 0.0 340 / 51026.7 5.8 -0.0
2019-Oct-15 03:00S 53°06' W 070°54'0 0.0 010 / 61026.8 6.5 -0.0
2019-Oct-15 02:00S 53°06' W 070°54'0 0.0 010 / 51027.1 7.2 -0.0
2019-Oct-15 01:00S 53°06' W 070°54'0 0.0 010 / 31027.3 7.8 -0.0
2019-Oct-15 00:00S 53°06' W 070°54'0 0.0 040 / 21027.4 8.0 -0.0
2019-Oct-14 23:00S 53°06' W 070°54'0 0.0 060 / 11027.4 7.9 -0.0
2019-Oct-14 22:00S 53°06' W 070°54'0 0.0 100 / 11027.4 8.5 -0.0
2019-Oct-14 21:00S 53°06' W 070°54'0 0.0 090 / 11027.3 8.3 -0.0
2019-Oct-14 20:00S 53°06' W 070°54'0 0.0 080 / 31027.3 7.9 -0.0
2019-Oct-14 19:00S 53°06' W 070°54'0 0.0 100 / 31027.3 8.0 -0.0
2019-Oct-14 18:00S 53°06' W 070°54'0 0.0 160 / 21027.5 8.9 -0.0
2019-Oct-14 17:00S 53°06' W 070°54'0 0.0 140 / 91027.5 7.4 -0.0
2019-Oct-14 16:00S 53°06' W 070°54'0 0.0 130 / 71027.6 8.3 -0.0
2019-Oct-14 15:00S 53°06' W 070°54'0 0.0 110 / 51027.8 10.2 -0.0
2019-Oct-14 14:00S 53°06' W 070°54'0 0.0 270 / 101028.2 10.3 -0.0
2019-Oct-14 13:00S 53°06' W 070°54'0 0.0 260 / 91028.5 8.7 -0.0
2019-Oct-14 12:00S 53°06' W 070°54'0 0.0 170 / 31028.5 7.6 -0.0
2019-Oct-14 11:00S 53°06' W 070°54'0 0.0 270 / 51028.7 5.9 -0.0
2019-Oct-14 10:00S 53°06' W 070°54'0 0.0 280 / 81028.6 5.9 -0.0
2019-Oct-14 09:00S 53°06' W 070°54'0 0.0 280 / 71028.7 5.9 -0.0
2019-Oct-14 08:00S 53°06' W 070°54'0 0.0 260 / 71028.8 6.0 -0.0
2019-Oct-14 07:00S 53°06' W 070°54'0 0.0 260 / 81028.7 6.0 -0.0
2019-Oct-14 06:00S 53°06' W 070°54'0 0.0 260 / 101028.9 6.1 -0.0
2019-Oct-14 05:00S 53°06' W 070°54'0 0.0 270 / 71029.0 6.1 -0.0
2019-Oct-14 04:00S 53°06' W 070°54'0 0.0 270 / 91029.2 6.1 -0.0
2019-Oct-14 03:00S 53°06' W 070°54'0 0.0 270 / 71029.5 6.2 -0.0
2019-Oct-14 02:00S 53°06' W 070°54'0 0.0 280 / 71029.9 6.0 -0.0
2019-Oct-14 01:00S 53°06' W 070°54'0 0.0 300 / 91029.9 6.0 -0.0
2019-Oct-14 00:00S 53°06' W 070°54'0 0.0 260 / 71029.7 6.5 -0.0
2019-Oct-13 23:00S 53°06' W 070°54'0 0.0 250 / 91029.5 7.1 -0.0
2019-Oct-13 22:00S 53°06' W 070°54'0 0.0 280 / 111029.1 7.0 -0.0
2019-Oct-13 21:00S 53°06' W 070°54'0 0.0 080 / 61028.8 6.1 -0.0
2019-Oct-13 20:00S 53°06' W 070°54'0 0.0 090 / 61028.6 6.1 -0.0
2019-Oct-13 19:00S 53°06' W 070°54'0 0.0 130 / 101028.4 6.3 -0.0
2019-Oct-13 18:00S 53°06' W 070°54'0 0.0 180 / 131028.1 8.6 -0.0
2019-Oct-13 17:00S 53°06' W 070°54'0 0.0 190 / 141027.6 8.4 -0.0
2019-Oct-13 16:00S 53°06' W 070°54'0 0.0 210 / 131027.4 8.1 -0.0
2019-Oct-13 15:00S 53°06' W 070°54'0 0.0 210 / 181027.2 8.0 -0.0
2019-Oct-13 14:00S 53°06' W 070°54'0 0.0 210 / 221026.6 7.3 -0.0
2019-Oct-13 13:00S 53°06' W 070°54'0 0.0 210 / 161026.4 6.6 -0.0
2019-Oct-13 12:00S 53°06' W 070°54'0 0.0 220 / 141025.6 5.5 -0.0
2019-Oct-13 11:00S 53°06' W 070°54'0 0.0 230 / 91024.8 4.2 -0.0
2019-Oct-13 10:00S 53°06' W 070°54'0 0.0 220 / 71023.7 3.8 -0.0
2019-Oct-13 09:00S 53°06' W 070°54'0 0.0 230 / 71022.2 3.7 -0.0
2019-Oct-13 08:00S 53°06' W 070°54'0 0.0 250 / 111020.7 3.4 -0.0
2019-Oct-13 07:00S 53°06' W 070°54'0 0.0 310 / 71020.0 3.0 -0.0
2019-Oct-13 06:00S 53°06' W 070°54'0 0.0 240 / 141017.9 3.8 -0.0
2019-Oct-13 05:00S 53°06' W 070°54'0 0.0 220 / 131016.6 4.2 -0.0
2019-Oct-13 04:00S 53°06' W 070°54'0 0.0 220 / 161015.2 4.7 -0.0
2019-Oct-13 03:00S 53°06' W 070°54'0 0.0 220 / 171013.3 4.5 -0.0
2019-Oct-13 02:00S 53°06' W 070°54'0 0.0 220 / 121012.2 4.2 -0.0
2019-Oct-13 01:00S 53°06' W 070°54'0 0.0 230 / 221009.0 4.0 -0.0
2019-Oct-13 00:00S 53°06' W 070°54'0 0.0 220 / 281006.9 4.1 -0.0
2019-Oct-12 23:00S 53°06' W 070°54'0 0.0 230 / 201005.7 3.9 -0.0
2019-Oct-12 22:00S 53°06' W 070°54'0 0.0 230 / 181004.8 4.0 -0.0
2019-Oct-12 21:00S 53°06' W 070°54'0 0.0 230 / 151004.1 3.5 -0.0
2019-Oct-12 20:00S 53°06' W 070°54'0 0.0 230 / 181003.4 3.6 -0.0
2019-Oct-12 19:00S 53°06' W 070°54'0 0.0 240 / 191002.4 4.7 -0.0
2019-Oct-12 18:00S 53°06' W 070°54'0 0.0 250 / 161002.0 4.2 -0.0
2019-Oct-12 17:00S 53°06' W 070°54'0 0.0 250 / 211001.1 4.3 -0.0
2019-Oct-12 16:00S 53°06' W 070°54'0 0.0 260 / 211000.8 4.2 -0.0
2019-Oct-12 15:00S 53°06' W 070°54'0 0.0 250 / 151001.4 3.1 -0.0
2019-Oct-12 14:00S 53°06' W 070°54'0 0.0 260 / 151001.8 2.6 -0.0
2019-Oct-12 13:00S 53°06' W 070°54'0 0.0 250 / 171001.3 2.3 -0.0
2019-Oct-12 12:00S 53°06' W 070°54'0 0.0 250 / 151001.0 2.2 -0.0
2019-Oct-12 11:00S 53°06' W 070°54'0 0.0 250 / 141000.4 1.4 -0.0
2019-Oct-12 10:00S 53°06' W 070°54'0 0.0 250 / 12999.9 1.2 -0.0
2019-Oct-12 09:00S 53°06' W 070°54'0 0.0 240 / 11999.3 1.3 -0.0
2019-Oct-12 08:00S 53°06' W 070°54'0 0.0 250 / 10998.8 1.4 -0.0
2019-Oct-12 07:00S 53°06' W 070°54'0 0.0 260 / 10998.4 1.7 -0.0
2019-Oct-12 06:00S 53°06' W 070°54'0 0.0 240 / 8998.0 1.7 -0.0
2019-Oct-12 05:00S 53°06' W 070°54'0 0.0 250 / 11997.0 1.6 -0.0
2019-Oct-12 04:00S 53°06' W 070°54'0 0.0 220 / 14996.2 2.6 -0.0
2019-Oct-12 03:00S 53°06' W 070°54'0 0.0 230 / 15994.9 2.6 -0.0
2019-Oct-12 02:00S 53°06' W 070°54'0 0.0 240 / 13994.3 3.3 -0.0
2019-Oct-12 01:00S 53°06' W 070°54'0 0.0 240 / 11993.2 3.8 -0.0
2019-Oct-12 00:00S 53°06' W 070°54'0 0.0 250 / 12992.1 4.6 -0.0
2019-Oct-11 23:00S 53°06' W 070°54'0 0.0 260 / 18990.2 5.0 -0.0
2019-Oct-11 22:00S 53°06' W 070°54'0 0.0 270 / 29988.2 5.5 -0.0
2019-Oct-11 21:00S 53°06' W 070°54'0 0.0 270 / 23988.0 6.1 -0.0
2019-Oct-11 20:00S 53°06' W 070°54'0 0.0 280 / 24987.6 6.5 -0.0
2019-Oct-11 19:00S 53°06' W 070°54'0 0.0 280 / 27987.7 6.3 -0.0
2019-Oct-11 18:00S 53°06' W 070°54'0 0.0 290 / 24988.4 6.4 -0.0
2019-Oct-11 17:00S 53°06' W 070°54'0 0.0 290 / 28988.6 6.0 -0.0
2019-Oct-11 16:00S 53°06' W 070°54'0 0.0 300 / 27989.3 6.2 -0.0
2019-Oct-11 15:00S 53°06' W 070°54'0 0.0 310 / 24990.4 6.3 -0.0
2019-Oct-11 14:00S 53°06' W 070°54'0 0.0 310 / 20991.8 5.5 -0.0
2019-Oct-11 13:00S 53°06' W 070°54'0 0.0 350 / 12993.6 4.1 -0.0
2019-Oct-11 12:00S 53°06' W 070°54'0 0.0 020 / 13994.9 3.3 -0.0
2019-Oct-11 11:00S 53°06' W 070°54'0 0.0 010 / 11996.1 2.7 -0.0
2019-Oct-11 10:00S 53°06' W 070°54'0 0.0 997.1 2.4 -0.0
2019-Oct-11 09:00S 53°06' W 070°54'0 0.0 340 / 11998.3 2.0 -0.0
2019-Oct-11 08:00S 53°06' W 070°54'0 0.0 340 / 9999.2 1.9 -0.0
2019-Oct-11 07:00S 53°06' W 070°54'0 0.0 300 / 81000.1 1.9 -0.0
2019-Oct-11 06:00S 53°06' W 070°54'0 0.0 330 / 41000.8 1.5 -0.0
2019-Oct-11 05:00S 53°06' W 070°54'0 0.0 270 / 91001.2 1.7 -0.0
2019-Oct-11 04:00S 53°06' W 070°54'0 0.0 270 / 111001.6 1.6 -0.0
2019-Oct-11 03:00S 53°06' W 070°54'0 0.0 250 / 61001.6 1.5 -0.0
2019-Oct-11 02:00S 53°06' W 070°54'0 0.0 250 / 61001.3 1.5 -0.0
2019-Oct-11 01:00S 53°06' W 070°54'0 0.0 240 / 71000.7 1.1 -0.0
2019-Oct-11 00:00S 53°06' W 070°54'0 0.0 250 / 9999.7 0.8 -0.0
2019-Oct-10 23:00S 53°06' W 070°54'0 0.0 250 / 14998.7 1.1 -0.0
2019-Oct-10 22:00S 53°06' W 070°54'0 0.0 250 / 15997.8 0.5 -0.0
2019-Oct-10 21:00S 53°06' W 070°54'0 0.0 240 / 17996.2 1.4 -0.0
2019-Oct-10 20:00S 53°06' W 070°54'0 0.0 230 / 18994.7 1.9 -0.0
2019-Oct-10 19:00S 53°06' W 070°54'0 0.0 230 / 17994.0 0.3 -0.0
2019-Oct-10 18:00S 53°06' W 070°54'0 0.0 240 / 21992.9 2.8 -0.0
2019-Oct-10 17:00S 53°06' W 070°54'0 0.0 200 / 23992.7 2.7 -0.0
2019-Oct-10 16:00S 53°06' W 070°54'0 0.0 200 / 20992.4 2.8 -0.0
2019-Oct-10 15:00S 53°06' W 070°54'0 0.0 230 / 17991.8 2.2 -0.0
2019-Oct-10 14:00S 53°06' W 070°54'0 0.0 250 / 17990.3 2.3 -0.0
2019-Oct-10 13:00S 53°06' W 070°54'0 0.0 230 / 19989.2 2.7 -0.0
2019-Oct-10 12:00S 53°06' W 070°54'0 0.0 250 / 23987.5 2.2 -0.0
2019-Oct-10 11:00S 53°06' W 070°54'0 0.0 260 / 26986.1 1.2 -0.0
2019-Oct-10 10:00S 53°06' W 070°54'0 0.0 260 / 25985.2 1.2 -0.0
2019-Oct-10 09:00S 53°06' W 070°54'0 0.0 260 / 24984.7 1.0 -0.0
2019-Oct-10 08:00S 53°06' W 070°54'0 0.0 270 / 25984.0 1.2 -0.0
2019-Oct-10 07:00S 53°06' W 070°54'0 0.0 270 / 28983.5 1.0 -0.0
2019-Oct-10 06:00S 53°06' W 070°54'0 0.0 270 / 28983.3 1.8 -0.0
2019-Oct-10 05:00S 53°06' W 070°54'0 0.0 270 / 28983.2 2.2 -0.0
2019-Oct-10 04:00S 53°06' W 070°54'0 0.0 280 / 28983.1 2.3 -0.0
2019-Oct-10 03:00S 53°06' W 070°54'0 0.0 280 / 29983.4 2.6 -0.0
2019-Oct-10 02:00S 53°06' W 070°54'0 0.0 270 / 23984.1 3.3 -0.0
2019-Oct-10 01:00S 53°06' W 070°54'0 0.0 260 / 21984.2 4.1 -0.0
2019-Oct-10 00:00S 53°06' W 070°54'0 0.0 280 / 26983.4 4.6 -0.0
2019-Oct-09 23:00S 53°06' W 070°54'0 0.0 290 / 32982.3 6.2 -0.0
2019-Oct-09 22:00S 53°06' W 070°54'0 0.0 280 / 33982.5 6.4 -0.0
2019-Oct-09 21:00S 53°06' W 070°54'0 0.0 280 / 42980.9 7.1 -0.0
2019-Oct-09 20:00S 53°06' W 070°54'0 0.0 280 / 42981.0 8.3 -0.0
2019-Oct-09 19:00S 53°06' W 070°54'0 0.0 280 / 30984.5 8.4 -0.0
2019-Oct-09 18:00S 53°06' W 070°54'0 0.0 280 / 18987.1 8.8 -0.0
2019-Oct-09 17:00S 53°06' W 070°54'0 0.0 280 / 18988.6 8.9 -0.0
2019-Oct-09 16:00S 53°06' W 070°54'0 0.0 300 / 10990.3 9.4 -0.0
2019-Oct-09 15:00S 53°06' W 070°54'0 0.0 280 / 14991.6 9.0 -0.0
2019-Oct-09 14:00S 53°06' W 070°54'0 0.0 290 / 11993.2 8.5 -0.0
2019-Oct-09 13:00S 53°06' W 070°54'0 0.0 270 / 8994.8 8.4 -0.0
2019-Oct-09 12:00S 53°06' W 070°54'0 0.0 240 / 8996.1 7.8 -0.0
2019-Oct-09 11:00S 53°06' W 070°54'0 0.0 240 / 7996.8 6.2 -0.0
2019-Oct-09 10:00S 53°06' W 070°54'0 0.0 030 / 4997.5 5.2 -0.0
2019-Oct-09 09:00S 53°06' W 070°54'0 0.0 260 / 9997.8 5.1 -0.0
2019-Oct-09 08:00S 53°06' W 070°54'0 0.0 240 / 13997.5 5.2 -0.0
2019-Oct-09 07:00S 53°06' W 070°54'0 0.0 240 / 11997.4 5.3 -0.0
2019-Oct-09 06:00S 53°06' W 070°54'0 0.0 220 / 15997.1 5.7 -0.0
2019-Oct-09 05:00S 53°06' W 070°54'0 0.0 240 / 11996.5 5.7 -0.0
2019-Oct-09 04:00S 53°06' W 070°54'0 0.0 260 / 9996.6 5.3 -0.0
2019-Oct-09 03:00S 53°06' W 070°54'0 0.0 260 / 19996.0 5.4 -0.0
2019-Oct-09 02:00S 53°06' W 070°54'0 0.0 270 / 23995.7 5.5 -0.0
2019-Oct-09 01:00S 53°06' W 070°54'0 0.0 270 / 29996.0 5.4 -0.0
2019-Oct-09 00:00S 53°06' W 070°54'0 0.0 270 / 31996.4 5.7 -0.0
2019-Oct-08 23:00S 53°06' W 070°54'   270 / 25997.3 6.7 -0.0
Track history (hours):
 
Tides and Currents Weather Stations Pressure Air Temp Water Temp Dewpoint Dewpoint Depression Visibility Wind Speed Wind Dir Waves Ship Positions

Oceanographic research ship Nathaniel B. Palmer (USA)

Contact: Ethan Norris, ethan.norris.contractor@usap.gov

Detailed information on ship capabilities available from University of Delaware's Ocean Information Center and ARCUS's ALIAS (Arctic Logistics Information and Support) project.

Owner: OFFSHORE SERVICE VESSELS, Cut Off, LA. More information available from US FCC via Universal Licensing System and Coast Guard Vessel Documentation Center.

Last reported at 2019-Oct-18 23:00 UTC. Time now 2019-Oct-18 23:56 UTC.
Position S 53°06' W 070°54'.

Type: Other ship. MMSI: 366610000.

Wind from 360 at 10 knots

Barometer 1003.3 mb
Air temperature 8.6 ° C
Water temperature -0.0 ° C

Date/timePositionNaut miles runAvg speedWind from/ knotsBaromVisibWave heightAir tempDewpointWater temp
2019-Oct-18 23:00S 53°06' W 070°54'0 0.0 360 / 101003.3 8.6 -0.0
2019-Oct-18 22:00S 53°06' W 070°54'0 0.0 360 / 111004.0 9.1 -0.0
2019-Oct-18 21:00S 53°06' W 070°54'0 0.0 1004.3 8.9 -0.0
2019-Oct-18 20:00S 53°06' W 070°54'0 0.0 1005.4 7.9 -0.0
2019-Oct-18 19:00S 53°06' W 070°54'0 0.0 020 / 141006.6 5.8 -0.0
2019-Oct-18 18:00S 53°06' W 070°54'0 0.0 020 / 171007.7 4.9 -0.0
2019-Oct-18 17:00S 53°06' W 070°54'0 0.0 010 / 151008.8 5.0 -0.0
2019-Oct-18 16:00S 53°06' W 070°54'0 0.0 350 / 121009.6 5.8 -0.0
2019-Oct-18 15:00S 53°06' W 070°54'0 0.0 360 / 101009.8 6.9 -0.0
2019-Oct-18 14:00S 53°06' W 070°54'0 0.0 330 / 81010.5 6.8 -0.0
2019-Oct-18 13:00S 53°06' W 070°54'0 0.0 300 / 81011.0 6.8 -0.0
2019-Oct-18 12:00S 53°06' W 070°54'0 0.0 260 / 71011.3 7.1 -0.0
2019-Oct-18 11:00S 53°06' W 070°54'0 0.0 260 / 71011.4 5.9 -0.0
2019-Oct-18 10:00S 53°06' W 070°54'0 0.0 260 / 111011.0 5.0 -0.0
2019-Oct-18 09:00S 53°06' W 070°54'0 0.0 280 / 111010.7 4.9 -0.0
2019-Oct-18 08:00S 53°06' W 070°54'0 0.0 280 / 91010.2 5.0 -0.0
2019-Oct-18 07:00S 53°06' W 070°54'0 0.0 260 / 81009.6 5.0 -0.0
2019-Oct-18 06:00S 53°06' W 070°54'0 0.0 280 / 101008.7 5.1 -0.0
2019-Oct-18 05:00S 53°06' W 070°54'0 0.0 270 / 91008.0 5.5 -0.0
2019-Oct-18 04:00S 53°06' W 070°54'0 0.0 270 / 91007.1 5.8 -0.0
2019-Oct-18 03:00S 53°06' W 070°54'0 0.0 280 / 151005.8 6.8 -0.0
2019-Oct-18 02:00S 53°06' W 070°54'0 0.0 300 / 81005.2 7.4 -0.0
2019-Oct-18 01:00S 53°06' W 070°54'0 0.0 270 / 41004.7 8.1 -0.0
2019-Oct-18 00:00S 53°06' W 070°54'0 0.0 300 / 81003.9 8.6 -0.0
2019-Oct-17 23:00S 53°06' W 070°54'0 0.0 300 / 151003.7 9.0 -0.0
2019-Oct-17 22:00S 53°06' W 070°54'0 0.0 300 / 211004.4 9.4 -0.0
2019-Oct-17 21:00S 53°06' W 070°54'0 0.0 290 / 211004.7 9.7 -0.0
2019-Oct-17 20:00S 53°06' W 070°54'0 0.0 290 / 181004.9 10.4 -0.0
2019-Oct-17 19:00S 53°06' W 070°54'0 0.0 290 / 171005.0 11.3 -0.0
2019-Oct-17 18:00S 53°06' W 070°54'0 0.0 300 / 191005.4 11.4 -0.0
2019-Oct-17 17:00S 53°06' W 070°54'0 0.0 290 / 161005.8 11.3 -0.0
2019-Oct-17 16:00S 53°06' W 070°54'0 0.0 280 / 131006.3 11.2 -0.0
2019-Oct-17 15:00S 53°06' W 070°54'0 0.0 270 / 141006.3 10.3 -0.0
2019-Oct-17 14:00S 53°06' W 070°54'0 0.0 280 / 111006.6 9.5 -0.0
2019-Oct-17 13:00S 53°06' W 070°54'0 0.0 280 / 101006.4 8.8 -0.0
2019-Oct-17 12:00S 53°06' W 070°54'0 0.0 310 / 31006.4 7.1 -0.0
2019-Oct-17 11:00S 53°06' W 070°54'0 0.0 040 / 31006.5 5.9 -0.0
2019-Oct-17 10:00S 53°06' W 070°54'0 0.0 070 / 21006.4 5.9 -0.0
2019-Oct-17 09:00S 53°06' W 070°54'0 0.0 110 / 21006.6 6.2 -0.0
2019-Oct-17 08:00S 53°06' W 070°54'0 0.0 140 / 11007.0 6.3 -0.0
2019-Oct-17 07:00S 53°06' W 070°54'0 0.0 250 / 21007.1 6.1 -0.0
2019-Oct-17 06:00S 53°06' W 070°54'0 0.0 300 / 21007.5 6.4 -0.0
2019-Oct-17 05:00S 53°06' W 070°54'0 0.0 350 / 21008.0 6.4 -0.0
2019-Oct-17 04:00S 53°06' W 070°54'0 0.0 060 / 51008.3 6.4 -0.0
2019-Oct-17 03:00S 53°06' W 070°54'0 0.0 060 / 41008.7 6.6 -0.0
2019-Oct-17 02:00S 53°06' W 070°54'0 0.0 040 / 41009.1 7.3 -0.0
2019-Oct-17 01:00S 53°06' W 070°54'0 0.0 040 / 31009.3 8.4 -0.0
2019-Oct-17 00:00S 53°06' W 070°54'0 0.0 210 / 21009.3 8.5 -0.0
2019-Oct-16 23:00S 53°06' W 070°54'0 0.0 200 / 41009.5 8.6 -0.0
2019-Oct-16 22:00S 53°06' W 070°54'0 0.0 210 / 61009.7 8.1 -0.0
2019-Oct-16 21:00S 53°06' W 070°54'0 0.0 190 / 101009.9 7.6 -0.0
2019-Oct-16 20:00S 53°06' W 070°54'0 0.0 180 / 131010.3 7.5 -0.0
2019-Oct-16 19:00S 53°06' W 070°54'0 0.0 200 / 121011.3 7.9 -0.0
2019-Oct-16 18:00S 53°06' W 070°54'0 0.0 180 / 131012.4 7.9 -0.0
2019-Oct-16 17:00S 53°06' W 070°54'0 0.0 180 / 161013.0 7.5 -0.0
2019-Oct-16 16:00S 53°06' W 070°54'0 0.0 180 / 171013.8 7.4 -0.0
2019-Oct-16 15:00S 53°06' W 070°54'0 0.0 190 / 131014.8 7.7 -0.0
2019-Oct-16 14:00S 53°06' W 070°54'0 0.0 190 / 121015.8 7.1 -0.0
2019-Oct-16 13:00S 53°06' W 070°54'0 0.0 190 / 151016.0 7.0 -0.0
2019-Oct-16 12:00S 53°06' W 070°54'0 0.0 210 / 151016.3 6.3 -0.0
2019-Oct-16 11:00S 53°06' W 070°54'0 0.0 220 / 81016.7 4.2 -0.0
2019-Oct-16 10:00S 53°06' W 070°54'0 0.0 230 / 81017.1 3.2 -0.0
2019-Oct-16 09:00S 53°06' W 070°54'0 0.0 210 / 131017.6 4.2 -0.0
2019-Oct-16 08:00S 53°06' W 070°54'0 0.0 210 / 111018.0 4.2 -0.0
2019-Oct-16 07:00S 53°06' W 070°54'0 0.0 220 / 71018.5 4.9 -0.0
2019-Oct-16 06:00S 53°06' W 070°54'0 0.0 250 / 41019.2 4.8 -0.0
2019-Oct-16 05:00S 53°06' W 070°54'0 0.0 240 / 21019.8 5.2 -0.0
2019-Oct-16 04:00S 53°06' W 070°54'0 0.0 180 / 21020.1 6.7 -0.0
2019-Oct-16 03:00S 53°06' W 070°54'0 0.0 220 / 11020.3 6.9 -0.0
2019-Oct-16 02:00S 53°06' W 070°54'0 0.0 230 / 21020.7 8.0 -0.0
2019-Oct-16 01:00S 53°06' W 070°54'0 0.0 250 / 31020.7 8.3 -0.0
2019-Oct-16 00:00S 53°06' W 070°54'0 0.0 230 / 51020.5 8.6 -0.0
2019-Oct-15 23:00S 53°06' W 070°54'0 0.0 190 / 61020.8 8.5 -0.0
2019-Oct-15 22:00S 53°06' W 070°54'0 0.0 170 / 51021.1 8.2 -0.0
2019-Oct-15 21:00S 53°06' W 070°54'0 0.0 200 / 41021.3 8.3 -0.0
2019-Oct-15 20:00S 53°06' W 070°54'0 0.0 190 / 31021.9 7.9 -0.0
2019-Oct-15 19:00S 53°06' W 070°54'0 0.0 160 / 41022.5 7.1 -0.0
2019-Oct-15 18:00S 53°06' W 070°54'0 0.0 110 / 41023.0 6.3 -0.0
2019-Oct-15 17:00S 53°06' W 070°54'0 0.0 090 / 41023.4 6.3 -0.0
2019-Oct-15 16:00S 53°06' W 070°54'0 0.0 080 / 51024.0 6.4 -0.0
2019-Oct-15 15:00S 53°06' W 070°54'0 0.0 080 / 51024.5 6.1 -0.0
2019-Oct-15 14:00S 53°06' W 070°54'0 0.0 060 / 71024.7 5.9 -0.0
2019-Oct-15 13:00S 53°06' W 070°54'0 0.0 080 / 41025.1 6.2 -0.0
2019-Oct-15 12:00S 53°06' W 070°54'0 0.0 110 / 11025.3 6.7 -0.0
2019-Oct-15 11:00S 53°06' W 070°54'0 0.0 310 / 21025.4 5.3 -0.0
2019-Oct-15 10:00S 53°06' W 070°54'0 0.0 300 / 21025.4 3.3 -0.0
2019-Oct-15 09:00S 53°06' W 070°54'0 0.0 270 / 31025.6 3.4 -0.0
2019-Oct-15 08:00S 53°06' W 070°54'0 0.0 260 / 41025.7 3.8 -0.0
2019-Oct-15 07:00S 53°06' W 070°54'0 0.0 290 / 41025.9 4.5 -0.0
2019-Oct-15 06:00S 53°06' W 070°54'0 0.0 340 / 61026.1 5.0 -0.0
2019-Oct-15 05:00S 53°06' W 070°54'0 0.0 340 / 61026.6 5.5 -0.0
2019-Oct-15 04:00S 53°06' W 070°54'0 0.0 340 / 51026.7 5.8 -0.0
2019-Oct-15 03:00S 53°06' W 070°54'0 0.0 010 / 61026.8 6.5 -0.0
2019-Oct-15 02:00S 53°06' W 070°54'0 0.0 010 / 51027.1 7.2 -0.0
2019-Oct-15 01:00S 53°06' W 070°54'0 0.0 010 / 31027.3 7.8 -0.0
2019-Oct-15 00:00S 53°06' W 070°54'0 0.0 040 / 21027.4 8.0 -0.0
2019-Oct-14 23:00S 53°06' W 070°54'0 0.0 060 / 11027.4 7.9 -0.0
2019-Oct-14 22:00S 53°06' W 070°54'0 0.0 100 / 11027.4 8.5 -0.0
2019-Oct-14 21:00S 53°06' W 070°54'0 0.0 090 / 11027.3 8.3 -0.0
2019-Oct-14 20:00S 53°06' W 070°54'0 0.0 080 / 31027.3 7.9 -0.0
2019-Oct-14 19:00S 53°06' W 070°54'0 0.0 100 / 31027.3 8.0 -0.0
2019-Oct-14 18:00S 53°06' W 070°54'0 0.0 160 / 21027.5 8.9 -0.0
2019-Oct-14 17:00S 53°06' W 070°54'0 0.0 140 / 91027.5 7.4 -0.0
2019-Oct-14 16:00S 53°06' W 070°54'0 0.0 130 / 71027.6 8.3 -0.0
2019-Oct-14 15:00S 53°06' W 070°54'0 0.0 110 / 51027.8 10.2 -0.0
2019-Oct-14 14:00S 53°06' W 070°54'0 0.0 270 / 101028.2 10.3 -0.0
2019-Oct-14 13:00S 53°06' W 070°54'0 0.0 260 / 91028.5 8.7 -0.0
2019-Oct-14 12:00S 53°06' W 070°54'0 0.0 170 / 31028.5 7.6 -0.0
2019-Oct-14 11:00S 53°06' W 070°54'0 0.0 270 / 51028.7 5.9 -0.0
2019-Oct-14 10:00S 53°06' W 070°54'0 0.0 280 / 81028.6 5.9 -0.0
2019-Oct-14 09:00S 53°06' W 070°54'0 0.0 280 / 71028.7 5.9 -0.0
2019-Oct-14 08:00S 53°06' W 070°54'0 0.0 260 / 71028.8 6.0 -0.0
2019-Oct-14 07:00S 53°06' W 070°54'0 0.0 260 / 81028.7 6.0 -0.0
2019-Oct-14 06:00S 53°06' W 070°54'0 0.0 260 / 101028.9 6.1 -0.0
2019-Oct-14 05:00S 53°06' W 070°54'0 0.0 270 / 71029.0 6.1 -0.0
2019-Oct-14 04:00S 53°06' W 070°54'0 0.0 270 / 91029.2 6.1 -0.0
2019-Oct-14 03:00S 53°06' W 070°54'0 0.0 270 / 71029.5 6.2 -0.0
2019-Oct-14 02:00S 53°06' W 070°54'0 0.0 280 / 71029.9 6.0 -0.0
2019-Oct-14 01:00S 53°06' W 070°54'0 0.0 300 / 91029.9 6.0 -0.0
2019-Oct-14 00:00S 53°06' W 070°54'0 0.0 260 / 71029.7 6.5 -0.0
2019-Oct-13 23:00S 53°06' W 070°54'0 0.0 250 / 91029.5 7.1 -0.0
2019-Oct-13 22:00S 53°06' W 070°54'0 0.0 280 / 111029.1 7.0 -0.0
2019-Oct-13 21:00S 53°06' W 070°54'0 0.0 080 / 61028.8 6.1 -0.0
2019-Oct-13 20:00S 53°06' W 070°54'0 0.0 090 / 61028.6 6.1 -0.0
2019-Oct-13 19:00S 53°06' W 070°54'0 0.0 130 / 101028.4 6.3 -0.0
2019-Oct-13 18:00S 53°06' W 070°54'0 0.0 180 / 131028.1 8.6 -0.0
2019-Oct-13 17:00S 53°06' W 070°54'0 0.0 190 / 141027.6 8.4 -0.0
2019-Oct-13 16:00S 53°06' W 070°54'0 0.0 210 / 131027.4 8.1 -0.0
2019-Oct-13 15:00S 53°06' W 070°54'0 0.0 210 / 181027.2 8.0 -0.0
2019-Oct-13 14:00S 53°06' W 070°54'0 0.0 210 / 221026.6 7.3 -0.0
2019-Oct-13 13:00S 53°06' W 070°54'0 0.0 210 / 161026.4 6.6 -0.0
2019-Oct-13 12:00S 53°06' W 070°54'0 0.0 220 / 141025.6 5.5 -0.0
2019-Oct-13 11:00S 53°06' W 070°54'0 0.0 230 / 91024.8 4.2 -0.0
2019-Oct-13 10:00S 53°06' W 070°54'0 0.0 220 / 71023.7 3.8 -0.0
2019-Oct-13 09:00S 53°06' W 070°54'0 0.0 230 / 71022.2 3.7 -0.0
2019-Oct-13 08:00S 53°06' W 070°54'0 0.0 250 / 111020.7 3.4 -0.0
2019-Oct-13 07:00S 53°06' W 070°54'0 0.0 310 / 71020.0 3.0 -0.0
2019-Oct-13 06:00S 53°06' W 070°54'0 0.0 240 / 141017.9 3.8 -0.0
2019-Oct-13 05:00S 53°06' W 070°54'0 0.0 220 / 131016.6 4.2 -0.0
2019-Oct-13 04:00S 53°06' W 070°54'0 0.0 220 / 161015.2 4.7 -0.0
2019-Oct-13 03:00S 53°06' W 070°54'0 0.0 220 / 171013.3 4.5 -0.0
2019-Oct-13 02:00S 53°06' W 070°54'0 0.0 220 / 121012.2 4.2 -0.0
2019-Oct-13 01:00S 53°06' W 070°54'0 0.0 230 / 221009.0 4.0 -0.0
2019-Oct-13 00:00S 53°06' W 070°54'0 0.0 220 / 281006.9 4.1 -0.0
2019-Oct-12 23:00S 53°06' W 070°54'0 0.0 230 / 201005.7 3.9 -0.0
2019-Oct-12 22:00S 53°06' W 070°54'0 0.0 230 / 181004.8 4.0 -0.0
2019-Oct-12 21:00S 53°06' W 070°54'0 0.0 230 / 151004.1 3.5 -0.0
2019-Oct-12 20:00S 53°06' W 070°54'0 0.0 230 / 181003.4 3.6 -0.0
2019-Oct-12 19:00S 53°06' W 070°54'0 0.0 240 / 191002.4 4.7 -0.0
2019-Oct-12 18:00S 53°06' W 070°54'0 0.0 250 / 161002.0 4.2 -0.0
2019-Oct-12 17:00S 53°06' W 070°54'0 0.0 250 / 211001.1 4.3 -0.0
2019-Oct-12 16:00S 53°06' W 070°54'0 0.0 260 / 211000.8 4.2 -0.0
2019-Oct-12 15:00S 53°06' W 070°54'0 0.0 250 / 151001.4 3.1 -0.0
2019-Oct-12 14:00S 53°06' W 070°54'0 0.0 260 / 151001.8 2.6 -0.0
2019-Oct-12 13:00S 53°06' W 070°54'0 0.0 250 / 171001.3 2.3 -0.0
2019-Oct-12 12:00S 53°06' W 070°54'0 0.0 250 / 151001.0 2.2 -0.0
2019-Oct-12 11:00S 53°06' W 070°54'0 0.0 250 / 141000.4 1.4 -0.0
2019-Oct-12 10:00S 53°06' W 070°54'0 0.0 250 / 12999.9 1.2 -0.0
2019-Oct-12 09:00S 53°06' W 070°54'0 0.0 240 / 11999.3 1.3 -0.0
2019-Oct-12 08:00S 53°06' W 070°54'0 0.0 250 / 10998.8 1.4 -0.0
2019-Oct-12 07:00S 53°06' W 070°54'0 0.0 260 / 10998.4 1.7 -0.0
2019-Oct-12 06:00S 53°06' W 070°54'0 0.0 240 / 8998.0 1.7 -0.0
2019-Oct-12 05:00S 53°06' W 070°54'0 0.0 250 / 11997.0 1.6 -0.0
2019-Oct-12 04:00S 53°06' W 070°54'0 0.0 220 / 14996.2 2.6 -0.0
2019-Oct-12 03:00S 53°06' W 070°54'0 0.0 230 / 15994.9 2.6 -0.0
2019-Oct-12 02:00S 53°06' W 070°54'0 0.0 240 / 13994.3 3.3 -0.0
2019-Oct-12 01:00S 53°06' W 070°54'0 0.0 240 / 11993.2 3.8 -0.0
2019-Oct-12 00:00S 53°06' W 070°54'0 0.0 250 / 12992.1 4.6 -0.0
2019-Oct-11 23:00S 53°06' W 070°54'0 0.0 260 / 18990.2 5.0 -0.0
2019-Oct-11 22:00S 53°06' W 070°54'0 0.0 270 / 29988.2 5.5 -0.0
2019-Oct-11 21:00S 53°06' W 070°54'0 0.0 270 / 23988.0 6.1 -0.0
2019-Oct-11 20:00S 53°06' W 070°54'0 0.0 280 / 24987.6 6.5 -0.0
2019-Oct-11 19:00S 53°06' W 070°54'0 0.0 280 / 27987.7 6.3 -0.0
2019-Oct-11 18:00S 53°06' W 070°54'0 0.0 290 / 24988.4 6.4 -0.0
2019-Oct-11 17:00S 53°06' W 070°54'0 0.0 290 / 28988.6 6.0 -0.0
2019-Oct-11 16:00S 53°06' W 070°54'0 0.0 300 / 27989.3 6.2 -0.0
2019-Oct-11 15:00S 53°06' W 070°54'0 0.0 310 / 24990.4 6.3 -0.0
2019-Oct-11 14:00S 53°06' W 070°54'0 0.0 310 / 20991.8 5.5 -0.0
2019-Oct-11 13:00S 53°06' W 070°54'0 0.0 350 / 12993.6 4.1 -0.0
2019-Oct-11 12:00S 53°06' W 070°54'0 0.0 020 / 13994.9 3.3 -0.0
2019-Oct-11 11:00S 53°06' W 070°54'0 0.0 010 / 11996.1 2.7 -0.0
2019-Oct-11 10:00S 53°06' W 070°54'0 0.0 997.1 2.4 -0.0
2019-Oct-11 09:00S 53°06' W 070°54'0 0.0 340 / 11998.3 2.0 -0.0
2019-Oct-11 08:00S 53°06' W 070°54'0 0.0 340 / 9999.2 1.9 -0.0
2019-Oct-11 07:00S 53°06' W 070°54'0 0.0 300 / 81000.1 1.9 -0.0
2019-Oct-11 06:00S 53°06' W 070°54'0 0.0 330 / 41000.8 1.5 -0.0
2019-Oct-11 05:00S 53°06' W 070°54'0 0.0 270 / 91001.2 1.7 -0.0
2019-Oct-11 04:00S 53°06' W 070°54'0 0.0 270 / 111001.6 1.6 -0.0
2019-Oct-11 03:00S 53°06' W 070°54'0 0.0 250 / 61001.6 1.5 -0.0
2019-Oct-11 02:00S 53°06' W 070°54'0 0.0 250 / 61001.3 1.5 -0.0
2019-Oct-11 01:00S 53°06' W 070°54'0 0.0 240 / 71000.7 1.1 -0.0
2019-Oct-11 00:00S 53°06' W 070°54'0 0.0 250 / 9999.7 0.8 -0.0
2019-Oct-10 23:00S 53°06' W 070°54'0 0.0 250 / 14998.7 1.1 -0.0
2019-Oct-10 22:00S 53°06' W 070°54'0 0.0 250 / 15997.8 0.5 -0.0
2019-Oct-10 21:00S 53°06' W 070°54'0 0.0 240 / 17996.2 1.4 -0.0
2019-Oct-10 20:00S 53°06' W 070°54'0 0.0 230 / 18994.7 1.9 -0.0
2019-Oct-10 19:00S 53°06' W 070°54'0 0.0 230 / 17994.0 0.3 -0.0
2019-Oct-10 18:00S 53°06' W 070°54'0 0.0 240 / 21992.9 2.8 -0.0
2019-Oct-10 17:00S 53°06' W 070°54'0 0.0 200 / 23992.7 2.7 -0.0
2019-Oct-10 16:00S 53°06' W 070°54'0 0.0 200 / 20992.4 2.8 -0.0
2019-Oct-10 15:00S 53°06' W 070°54'0 0.0 230 / 17991.8 2.2 -0.0
2019-Oct-10 14:00S 53°06' W 070°54'0 0.0 250 / 17990.3 2.3 -0.0
2019-Oct-10 13:00S 53°06' W 070°54'0 0.0 230 / 19989.2 2.7 -0.0
2019-Oct-10 12:00S 53°06' W 070°54'0 0.0 250 / 23987.5 2.2 -0.0
2019-Oct-10 11:00S 53°06' W 070°54'0 0.0 260 / 26986.1 1.2 -0.0
2019-Oct-10 10:00S 53°06' W 070°54'0 0.0 260 / 25985.2 1.2 -0.0
2019-Oct-10 09:00S 53°06' W 070°54'0 0.0 260 / 24984.7 1.0 -0.0
2019-Oct-10 08:00S 53°06' W 070°54'0 0.0 270 / 25984.0 1.2 -0.0
2019-Oct-10 07:00S 53°06' W 070°54'0 0.0 270 / 28983.5 1.0 -0.0
2019-Oct-10 06:00S 53°06' W 070°54'0 0.0 270 / 28983.3 1.8 -0.0
2019-Oct-10 05:00S 53°06' W 070°54'0 0.0 270 / 28983.2 2.2 -0.0
2019-Oct-10 04:00S 53°06' W 070°54'0 0.0 280 / 28983.1 2.3 -0.0
2019-Oct-10 03:00S 53°06' W 070°54'0 0.0 280 / 29983.4 2.6 -0.0
2019-Oct-10 02:00S 53°06' W 070°54'0 0.0 270 / 23984.1 3.3 -0.0
2019-Oct-10 01:00S 53°06' W 070°54'0 0.0 260 / 21984.2 4.1 -0.0
2019-Oct-10 00:00S 53°06' W 070°54'0 0.0 280 / 26983.4 4.6 -0.0
2019-Oct-09 23:00S 53°06' W 070°54'0 0.0 290 / 32982.3 6.2 -0.0
2019-Oct-09 22:00S 53°06' W 070°54'0 0.0 280 / 33982.5 6.4 -0.0
2019-Oct-09 21:00S 53°06' W 070°54'0 0.0 280 / 42980.9 7.1 -0.0
2019-Oct-09 20:00S 53°06' W 070°54'0 0.0 280 / 42981.0 8.3 -0.0
2019-Oct-09 19:00S 53°06' W 070°54'0 0.0 280 / 30984.5 8.4 -0.0
2019-Oct-09 18:00S 53°06' W 070°54'0 0.0 280 / 18987.1 8.8 -0.0
2019-Oct-09 17:00S 53°06' W 070°54'0 0.0 280 / 18988.6 8.9 -0.0
2019-Oct-09 16:00S 53°06' W 070°54'0 0.0 300 / 10990.3 9.4 -0.0
2019-Oct-09 15:00S 53°06' W 070°54'0 0.0 280 / 14991.6 9.0 -0.0
2019-Oct-09 14:00S 53°06' W 070°54'0 0.0 290 / 11993.2 8.5 -0.0
2019-Oct-09 13:00S 53°06' W 070°54'0 0.0 270 / 8994.8 8.4 -0.0
2019-Oct-09 12:00S 53°06' W 070°54'0 0.0 240 / 8996.1 7.8 -0.0
2019-Oct-09 11:00S 53°06' W 070°54'0 0.0 240 / 7996.8 6.2 -0.0
2019-Oct-09 10:00S 53°06' W 070°54'0 0.0 030 / 4997.5 5.2 -0.0
2019-Oct-09 09:00S 53°06' W 070°54'0 0.0 260 / 9997.8 5.1 -0.0
2019-Oct-09 08:00S 53°06' W 070°54'0 0.0 240 / 13997.5 5.2 -0.0
2019-Oct-09 07:00S 53°06' W 070°54'0 0.0 240 / 11997.4 5.3 -0.0
2019-Oct-09 06:00S 53°06' W 070°54'0 0.0 220 / 15997.1 5.7 -0.0
2019-Oct-09 05:00S 53°06' W 070°54'0 0.0 240 / 11996.5 5.7 -0.0
2019-Oct-09 04:00S 53°06' W 070°54'0 0.0 260 / 9996.6 5.3 -0.0
2019-Oct-09 03:00S 53°06' W 070°54'0 0.0 260 / 19996.0 5.4 -0.0
2019-Oct-09 02:00S 53°06' W 070°54'0 0.0 270 / 23995.7 5.5 -0.0
2019-Oct-09 01:00S 53°06' W 070°54'0 0.0 270 / 29996.0 5.4 -0.0
2019-Oct-09 00:00S 53°06' W 070°54'0 0.0 270 / 31996.4 5.7 -0.0
2019-Oct-08 23:00S 53°06' W 070°54'   270 / 25997.3 6.7 -0.0

Dump ship's entire track history